Time;durP1;ratioP1;P1;durP2;ratioP2;P2;SDS_P1;SDS_P2;PMS_P1;PMS_P2;Temp;Humidity;BMP_temperature;BMP_pressure;BME280_temperature;BME280_humidity;BME280_pressure;Samples;Min_cycle;Max_cycle;Signal;HPM_P1;HPM_P2
2021/07/11 00:00:54;;;;;;;9.88;8.98;;;;;;;20.83;56.19;101567.94;6170412;28;20234;-50
2021/07/11 00:04:15;;;;;;;8.27;7.57;;;;;;;20.64;56.58;101563.34;6167886;28;20241;-52
2021/07/11 00:07:36;;;;;;;8.57;7.90;;;;;;;20.52;57.11;101561.16;6173050;28;20321;-51
2021/07/11 00:10:56;;;;;;;7.30;6.80;;;;;;;20.65;56.75;101554.50;6187228;28;20574;-53
2021/07/11 00:14:19;;;;;;;8.35;7.65;;;;;;;20.59;56.84;101561.81;6177385;28;20233;-48
2021/07/11 00:17:42;;;;;;;8.23;7.60;;;;;;;20.58;56.75;101560.06;6169701;28;20245;-51
2021/07/11 00:21:03;;;;;;;7.63;7.03;;;;;;;20.55;56.95;101563.72;6172253;28;20230;-49
2021/07/11 00:24:23;;;;;;;7.13;6.63;;;;;;;20.41;57.41;101561.59;6172844;28;20241;-52
2021/07/11 00:27:46;;;;;;;8.77;8.07;;;;;;;20.46;57.22;101558.78;6178677;28;20234;-50
2021/07/11 00:31:08;;;;;;;7.38;6.78;;;;;;;20.50;56.97;101555.09;6163778;28;20262;-51
2021/07/11 00:34:29;;;;;;;7.97;7.38;;;;;;;20.26;57.58;101560.41;6176385;28;20309;-51
2021/07/11 00:37:50;;;;;;;12.38;11.23;;;;;;;20.31;57.38;101557.56;6175210;28;20234;-48
2021/07/11 00:41:12;;;;;;;7.32;6.78;;;;;;;20.25;57.71;101561.31;6172008;28;20234;-51
2021/07/11 00:44:32;;;;;;;8.07;7.38;;;;;;;20.32;57.50;101559.31;6187156;28;20242;-50
2021/07/11 00:47:56;;;;;;;8.73;7.72;;;;;;;20.38;57.49;101560.84;6173621;28;20234;-52
2021/07/11 00:51:17;;;;;;;7.55;6.90;;;;;;;20.33;57.19;101562.81;6168968;28;20586;-54
2021/07/11 00:54:40;;;;;;;7.15;6.60;;;;;;;20.39;57.14;101566.06;6171298;28;20253;-47
2021/07/11 00:58:05;;;;;;;7.35;6.75;;;;;;;20.35;57.27;101556.53;6166740;28;20231;-55
2021/07/11 01:01:37;;;;;;;7.78;7.18;;;;;;;20.19;57.85;101564.19;6173687;28;20225;-50
2021/07/11 01:05:06;;;;;;;7.22;6.65;;;;;;;20.26;57.55;101562.19;6175818;28;20234;-51
2021/07/11 01:08:37;;;;;;;7.13;6.63;;;;;;;20.37;57.07;101573.19;6175170;28;20244;-49
2021/07/11 01:12:03;;;;;;;7.82;7.18;;;;;;;20.16;57.75;101574.00;6167720;28;20245;-48
2021/07/11 01:15:31;;;;;;;7.15;6.45;;;;;;;20.15;57.68;101577.59;6175348;28;20233;-54
2021/07/11 01:18:59;;;;;;;9.18;8.48;;;;;;;20.15;58.05;101578.44;6165907;28;20233;-51
2021/07/11 01:22:26;;;;;;;7.10;6.50;;;;;;;20.31;57.47;101581.38;6188761;28;20241;-51
2021/07/11 01:25:51;;;;;;;7.40;6.70;;;;;;;20.17;57.81;101576.59;6174755;28;20607;-49
2021/07/11 01:29:14;;;;;;;6.47;5.97;;;;;;;20.19;57.35;101579.19;6186732;28;20249;-53
2021/07/11 01:32:37;;;;;;;6.75;6.25;;;;;;;20.18;57.43;101573.06;6168701;28;20249;-52
2021/07/11 01:36:00;;;;;;;7.28;6.65;;;;;;;20.37;56.86;101577.63;6176695;28;20238;-47
2021/07/11 01:39:23;;;;;;;7.05;6.55;;;;;;;20.29;57.12;101569.97;6168547;28;20235;-49
2021/07/11 01:42:46;;;;;;;8.00;7.20;;;;;;;20.16;57.54;101568.72;6166366;28;20233;-51
2021/07/11 01:46:10;;;;;;;6.38;5.88;;;;;;;20.16;57.59;101574.88;6167322;28;20329;-53
2021/07/11 01:49:36;;;;;;;6.78;6.28;;;;;;;20.08;58.00;101571.66;6171204;28;20237;-55
2021/07/11 01:52:57;;;;;;;9.25;7.35;;;;;;;20.08;57.83;101576.94;6173457;28;20229;-51
2021/07/11 01:56:20;;;;;;;7.53;6.93;;;;;;;20.17;57.67;101581.88;6176618;28;20320;-49
2021/07/11 01:59:44;;;;;;;7.05;6.38;;;;;;;20.03;58.38;101584.19;6164697;28;20367;-49
2021/07/11 02:03:16;;;;;;;6.97;6.30;;;;;;;20.17;57.93;101575.75;6175224;28;20241;-49
2021/07/11 02:06:46;;;;;;;6.90;6.28;;;;;;;20.05;58.34;101577.06;6175643;28;20249;-50
2021/07/11 02:10:18;;;;;;;7.00;6.50;;;;;;;20.15;58.16;101582.88;6177150;28;20935;-53
2021/07/11 02:13:49;;;;;;;8.15;7.50;;;;;;;20.02;58.61;101578.00;6178720;28;20225;-52
2021/07/11 02:17:14;;;;;;;6.55;5.95;;;;;;;20.00;58.83;101576.34;6179194;28;20828;-52
2021/07/11 02:20:49;;;;;;;7.88;7.38;;;;;;;20.17;58.29;101581.88;6165698;28;20590;-50
2021/07/11 02:24:14;;;;;;;7.45;6.55;;;;;;;20.19;58.18;101580.03;6168625;28;20233;-51
2021/07/11 02:27:40;;;;;;;6.80;6.30;;;;;;;20.10;58.77;101587.47;6172413;28;20257;-51
2021/07/11 02:31:05;;;;;;;8.82;6.68;;;;;;;20.33;57.88;101581.31;6178882;28;20241;-52
2021/07/11 02:34:28;;;;;;;6.43;5.90;;;;;;;20.18;58.48;101577.44;6186064;28;20237;-54
2021/07/11 02:37:51;;;;;;;7.57;6.97;;;;;;;20.19;58.14;101580.03;6193197;28;20229;-47
2021/07/11 02:41:17;;;;;;;6.93;6.32;;;;;;;20.14;58.66;101568.81;6172675;28;20316;-51
2021/07/11 02:44:43;;;;;;;6.40;5.90;;;;;;;20.12;58.72;101569.75;6180245;28;20237;-53
2021/07/11 02:48:10;;;;;;;7.93;6.22;;;;;;;20.19;58.64;101574.75;6170787;28;20222;-49
2021/07/11 02:51:38;;;;;;;6.75;6.10;;;;;;;20.24;58.36;101572.81;6179259;28;20229;-47
2021/07/11 02:55:07;;;;;;;7.88;7.13;;;;;;;20.25;58.51;101573.66;6177041;28;20230;-53
2021/07/11 02:58:31;;;;;;;7.13;6.07;;;;;;;20.23;58.19;101571.06;6186262;28;20312;-51
2021/07/11 03:01:55;;;;;;;7.47;6.88;;;;;;;20.15;58.71;101562.56;6173958;28;20229;-50
2021/07/11 03:05:22;;;;;;;7.88;7.10;;;;;;;20.19;58.97;101558.03;6169649;28;20241;-49
2021/07/11 03:08:47;;;;;;;7.32;6.72;;;;;;;20.09;59.30;101557.53;6175252;28;20261;-51
2021/07/11 03:12:18;;;;;;;6.68;6.05;;;;;;;20.19;59.00;101553.59;6180116;28;20233;-49
2021/07/11 03:15:42;;;;;;;6.85;6.25;;;;;;;20.31;59.09;101559.34;6176180;28;20222;-47
2021/07/11 03:19:05;;;;;;;6.95;6.35;;;;;;;20.35;58.46;101559.16;6172141;28;20249;-54
2021/07/11 03:22:31;;;;;;;6.78;6.15;;;;;;;20.41;58.26;101558.97;6159984;28;21312;-50
2021/07/11 03:25:57;;;;;;;7.65;6.95;;;;;;;20.31;58.86;101557.56;6167377;28;20643;-53
2021/07/11 03:29:25;;;;;;;6.82;6.20;;;;;;;20.42;58.33;101554.53;6155083;28;20233;-51
2021/07/11 03:32:53;;;;;;;6.82;6.22;;;;;;;20.16;59.51;101564.31;6182535;28;20237;-50
2021/07/11 03:36:16;;;;;;;8.63;7.07;;;;;;;20.39;58.60;101563.41;6158401;28;20504;-51
2021/07/11 03:39:44;;;;;;;7.13;6.63;;;;;;;20.22;59.26;101564.06;6171486;28;20265;-53
2021/07/11 03:43:12;;;;;;;6.75;6.18;;;;;;;20.30;58.75;101560.25;6178748;28;20242;-50
2021/07/11 03:46:37;;;;;;;6.30;5.75;;;;;;;20.23;59.08;101565.78;6179486;28;20238;-48
2021/07/11 03:49:59;;;;;;;7.40;6.80;;;;;;;20.19;59.32;101564.19;6178915;28;20238;-53
2021/07/11 03:53:23;;;;;;;7.55;6.85;;;;;;;20.20;59.25;101557.09;6168384;28;20777;-49
2021/07/11 03:56:46;;;;;;;6.22;5.70;;;;;;;20.38;58.71;101547.63;6182549;28;20234;-52
2021/07/11 04:00:09;;;;;;;7.05;6.18;;;;;;;20.51;58.22;101553.28;6165403;28;20233;-51
2021/07/11 04:03:37;;;;;;;7.00;6.40;;;;;;;20.28;58.99;101563.00;6174750;28;20233;-53
2021/07/11 04:06:58;;;;;;;6.70;6.20;;;;;;;20.49;58.42;101561.31;6174451;28;20238;-50
2021/07/11 04:10:23;;;;;;;6.32;5.82;;;;;;;20.34;59.06;101564.53;6172002;28;20229;-54
2021/07/11 04:13:44;;;;;;;8.32;7.53;;;;;;;20.36;59.34;101568.00;6177547;28;20333;-52
2021/07/11 04:17:09;;;;;;;6.55;5.97;;;;;;;20.71;58.00;101560.50;6175392;28;20260;-49
2021/07/11 04:20:31;;;;;;;6.22;5.70;;;;;;;20.76;58.00;101577.91;6164759;28;20234;-49
2021/07/11 04:23:57;;;;;;;7.95;7.25;;;;;;;20.69;58.51;101578.22;6169977;28;20238;-53
2021/07/11 04:27:18;;;;;;;5.75;5.32;;;;;;;20.76;58.58;101579.69;6173646;28;20237;-53
2021/07/11 04:30:39;;;;;;;7.70;7.00;;;;;;;20.64;58.72;101575.72;6173881;28;20238;-52
2021/07/11 04:34:14;;;;;;;7.20;6.60;;;;;;;20.63;58.91;101585.47;6173089;28;20320;-53
2021/07/11 04:37:35;;;;;;;6.32;5.75;;;;;;;20.82;58.30;101582.97;6166038;28;20245;-49
2021/07/11 04:40:57;;;;;;;5.88;5.40;;;;;;;20.77;58.57;101574.34;6176752;28;20237;-52
2021/07/11 04:44:19;;;;;;;6.28;5.75;;;;;;;20.83;58.17;101583.81;6164798;28;20245;-53
2021/07/11 04:47:40;;;;;;;6.35;5.82;;;;;;;20.82;58.37;101580.31;6176900;28;20229;-53
2021/07/11 04:51:02;;;;;;;9.70;6.15;;;;;;;20.92;58.23;101585.22;6160461;28;20237;-50
2021/07/11 04:54:24;;;;;;;6.90;5.25;;;;;;;21.05;58.18;101586.44;6173138;28;20325;-50
2021/07/11 04:57:45;;;;;;;6.95;6.35;;;;;;;21.13;57.78;101588.78;6178347;28;20329;-51
2021/07/11 05:01:06;;;;;;;6.03;5.38;;;;;;;21.04;58.12;101590.03;6177165;28;20534;-49
2021/07/11 05:04:27;;;;;;;6.18;5.57;;;;;;;21.09;58.17;101589.84;6180900;28;20233;-50
2021/07/11 05:07:49;;;;;;;6.15;5.57;;;;;;;21.13;57.74;101597.63;6174452;28;20305;-55
2021/07/11 05:11:10;;;;;;;6.43;5.88;;;;;;;21.23;57.94;101593.66;6190055;28;20283;-50
2021/07/11 05:14:32;;;;;;;5.90;5.40;;;;;;;21.18;58.34;101587.66;6150322;28;20245;-50
2021/07/11 05:17:52;;;;;;;6.05;5.53;;;;;;;21.37;57.73;101597.50;6173668;28;20234;-55
2021/07/11 05:21:13;;;;;;;6.35;5.78;;;;;;;21.45;57.13;101594.56;6173489;28;20321;-53
2021/07/11 05:24:36;;;;;;;6.57;5.93;;;;;;;21.47;57.12;101596.22;6166396;28;20250;-49
2021/07/11 05:27:56;;;;;;;5.32;4.82;;;;;;;21.40;57.48;101592.06;6178551;28;20230;-49
2021/07/11 05:31:17;;;;;;;5.75;5.25;;;;;;;21.48;56.98;101592.66;6172404;28;20584;-53
2021/07/11 05:34:38;;;;;;;6.38;5.80;;;;;;;21.59;56.92;101592.19;6177763;28;20280;-52
2021/07/11 05:37:59;;;;;;;5.47;4.97;;;;;;;21.48;57.42;101602.38;6184376;28;20237;-50
2021/07/11 05:41:22;;;;;;;6.07;5.57;;;;;;;21.58;57.09;101601.94;6181990;28;20316;-52
2021/07/11 05:44:43;;;;;;;6.93;5.68;;;;;;;21.92;56.23;101599.59;6169130;28;20741;-51
2021/07/11 05:48:04;;;;;;;4.80;4.40;;;;;;;21.97;56.00;101598.47;6167691;28;20225;-52
2021/07/11 05:51:26;;;;;;;6.55;6.05;;;;;;;21.93;56.21;101602.19;6172143;28;20233;-55
2021/07/11 05:54:47;;;;;;;8.45;7.60;;;;;;;22.11;56.11;101611.09;6180587;28;20747;-47
2021/07/11 05:58:10;;;;;;;6.57;6.07;;;;;;;22.34;55.11;101618.06;6178122;28;20730;-50
2021/07/11 06:01:31;;;;;;;6.35;5.88;;;;;;;22.33;54.92;101615.47;6179486;28;20608;-51
2021/07/11 06:04:51;;;;;;;8.77;7.95;;;;;;;22.31;55.40;101614.69;6178162;28;20568;-49
2021/07/11 06:08:13;;;;;;;6.55;6.07;;;;;;;22.26;55.93;101614.06;6178451;28;20222;-50
2021/07/11 06:11:34;;;;;;;7.00;6.40;;;;;;;22.33;55.41;101612.81;6174344;28;20528;-49
2021/07/11 06:14:56;;;;;;;6.25;5.75;;;;;;;22.27;55.92;101615.75;6175664;28;20238;-49
2021/07/11 06:18:17;;;;;;;6.22;5.72;;;;;;;22.50;55.25;101612.91;6176010;28;20238;-51
2021/07/11 06:21:38;;;;;;;7.13;5.63;;;;;;;22.54;54.99;101613.63;6171839;28;20261;-48
2021/07/11 06:25:01;;;;;;;6.40;5.85;;;;;;;22.41;55.56;101613.31;6176345;28;20246;-55
2021/07/11 06:28:22;;;;;;;7.07;5.72;;;;;;;22.20;55.65;101613.34;6180241;28;20241;-49
2021/07/11 06:31:44;;;;;;;8.00;6.63;;;;;;;22.28;55.60;101610.38;6186086;28;20237;-53
2021/07/11 06:35:07;;;;;;;5.43;5.03;;;;;;;22.39;55.45;101617.84;6171741;28;20780;-51
2021/07/11 06:38:28;;;;;;;6.75;6.18;;;;;;;22.28;55.51;101617.50;6179966;28;20234;-50
2021/07/11 06:41:49;;;;;;;5.63;5.10;;;;;;;22.42;55.53;101620.34;6175762;28;20238;-49
2021/07/11 06:45:11;;;;;;;7.55;6.50;;;;;;;22.20;55.86;101610.69;6183850;28;20246;-52
2021/07/11 06:48:34;;;;;;;7.40;6.72;;;;;;;22.24;56.24;101616.72;6182295;28;20233;-49
2021/07/11 06:51:54;;;;;;;8.23;5.82;;;;;;;22.44;55.63;101620.28;6170951;28;20222;-49
2021/07/11 06:55:16;;;;;;;6.10;5.70;;;;;;;22.48;55.72;101624.53;6180675;28;20242;-49
2021/07/11 06:58:36;;;;;;;6.22;5.70;;;;;;;22.32;56.52;101624.38;6179380;28;20234;-52
2021/07/11 07:01:57;;;;;;;5.25;4.95;;;;;;;22.30;56.40;101620.94;6177433;28;20369;-51
2021/07/11 07:05:21;;;;;;;6.88;6.22;;;;;;;22.72;55.57;101627.81;6171906;28;20323;-50
2021/07/11 07:08:42;;;;;;;7.07;6.30;;;;;;;23.16;54.17;101622.19;6174738;28;20586;-50
2021/07/11 07:12:04;;;;;;;5.65;5.10;;;;;;;23.52;53.36;101618.66;6179725;28;20623;-52
2021/07/11 07:15:25;;;;;;;9.55;8.52;;;;;;;23.34;53.91;101631.03;6185296;28;20229;-53
2021/07/11 07:18:46;;;;;;;6.20;5.57;;;;;;;23.47;53.12;101626.84;6181739;28;20229;-47
2021/07/11 07:22:08;;;;;;;6.07;5.63;;;;;;;23.16;54.06;101623.03;6180452;28;20233;-51
2021/07/11 07:25:30;;;;;;;6.22;5.57;;;;;;;23.56;53.44;101617.53;6179749;28;20245;-48
2021/07/11 07:28:51;;;;;;;5.82;5.10;;;;;;;23.77;52.16;101623.56;6181796;28;20663;-53
2021/07/11 07:32:12;;;;;;;6.18;5.57;;;;;;;24.08;51.73;101614.84;6187428;28;20265;-48
2021/07/11 07:35:32;;;;;;;6.18;5.65;;;;;;;23.86;51.99;101615.13;6186961;28;20233;-52
2021/07/11 07:38:54;;;;;;;5.43;4.88;;;;;;;24.27;51.28;101612.06;6182329;28;20549;-48
2021/07/11 07:42:16;;;;;;;5.45;5.03;;;;;;;24.36;50.87;101621.34;6175804;28;20230;-51
2021/07/11 07:45:37;;;;;;;5.93;5.43;;;;;;;24.11;51.12;101606.69;6180122;28;20229;-49
2021/07/11 07:48:58;;;;;;;5.60;5.20;;;;;;;24.06;51.30;101619.41;6187960;28;20238;-53
2021/07/11 07:52:19;;;;;;;6.05;5.55;;;;;;;23.68;52.06;101619.56;6177458;28;20237;-54
2021/07/11 07:55:41;;;;;;;7.38;6.65;;;;;;;23.66;52.51;101621.44;6182658;28;20257;-48
2021/07/11 07:59:02;;;;;;;8.40;6.50;;;;;;;24.00;50.86;101626.84;6182620;28;20683;-49
2021/07/11 08:02:23;;;;;;;6.03;5.53;;;;;;;24.37;49.96;101617.75;6181569;28;20261;-51
2021/07/11 08:05:44;;;;;;;9.57;6.40;;;;;;;24.85;49.18;101617.78;6179853;28;20233;-50
2021/07/11 08:09:06;;;;;;;6.28;5.72;;;;;;;24.82;49.56;101617.97;6180335;28;20238;-49
2021/07/11 08:12:28;;;;;;;5.97;4.78;;;;;;;24.70;49.92;101616.88;6177226;28;20627;-52
2021/07/11 08:15:49;;;;;;;5.65;5.07;;;;;;;24.85;49.36;101613.31;6179255;28;20234;-51
2021/07/11 08:19:10;;;;;;;7.93;6.30;;;;;;;25.43;48.04;101616.25;6177924;28;20241;-49
2021/07/11 08:22:31;;;;;;;5.28;4.88;;;;;;;25.22;49.13;101615.69;6177150;28;20241;-47
2021/07/11 08:25:52;;;;;;;422.98;383.65;;;;;;;25.32;49.28;101617.75;6169513;28;20237;-51
2021/07/11 08:29:15;;;;;;;223.13;204.85;;;;;;;24.97;50.85;101622.44;6178112;28;20230;-48
2021/07/11 08:32:36;;;;;;;492.83;371.30;;;;;;;25.76;49.28;101625.88;6171999;28;20353;-55
2021/07/11 08:35:58;;;;;;;636.50;583.75;;;;;;;25.06;49.42;101626.38;6171467;28;20253;-51
2021/07/11 08:39:19;;;;;;;618.47;566.40;;;;;;;25.52;49.73;101619.25;6173950;28;20237;-48
2021/07/11 08:42:40;;;;;;;211.77;193.93;;;;;;;25.64;48.50;101622.97;6169374;28;20225;-53
2021/07/11 08:46:03;;;;;;;1562.35;999.90;;;;;;;26.25;50.03;101615.75;6179355;28;20461;-51
2021/07/11 08:49:24;;;;;;;465.00;421.10;;;;;;;26.56;45.95;101619.16;6182196;28;20233;-54
2021/07/11 08:52:48;;;;;;;45.08;40.72;;;;;;;26.60;45.30;101612.69;6185034;28;20253;-50
2021/07/11 08:56:16;;;;;;;23.23;21.27;;;;;;;27.18;45.20;101615.16;6176878;28;20623;-52
2021/07/11 08:59:39;;;;;;;28.02;25.40;;;;;;;27.25;44.58;101620.00;6171921;28;20233;-54
2021/07/11 09:03:02;;;;;;;8.07;7.35;;;;;;;27.39;43.61;101618.22;6175829;28;20234;-56
2021/07/11 09:06:23;;;;;;;6.72;6.15;;;;;;;27.33;43.88;101621.31;6177456;28;20238;-56
2021/07/11 09:09:44;;;;;;;5.63;5.10;;;;;;;27.03;43.97;101619.72;6174290;28;20233;-55
2021/07/11 09:13:14;;;;;;;5.50;5.10;;;;;;;26.75;44.59;101609.97;6182114;28;20632;-54
2021/07/11 09:16:43;;;;;;;4.88;4.47;;;;;;;26.81;44.46;101612.22;6175495;28;20253;-51
2021/07/11 09:20:08;;;;;;;10.05;5.82;;;;;;;26.82;44.52;101609.47;6177373;28;20241;-53
2021/07/11 09:23:31;;;;;;;5.57;4.95;;;;;;;27.01;44.18;101605.59;6178230;28;20556;-50
2021/07/11 09:26:56;;;;;;;5.70;5.20;;;;;;;27.31;44.14;101597.34;6175487;28;20704;-51
2021/07/11 09:30:17;;;;;;;6.00;5.35;;;;;;;27.61;43.74;101604.28;6175284;28;20447;-51
2021/07/11 09:33:40;;;;;;;6.00;5.60;;;;;;;27.28;43.03;101593.09;6168313;28;20238;-55
2021/07/11 09:37:11;;;;;;;7.85;6.88;;;;;;;26.98;43.68;101590.59;6180692;28;20954;-50
2021/07/11 09:40:33;;;;;;;6.63;5.97;;;;;;;27.24;42.75;101598.72;6169947;28;20252;-55
2021/07/11 09:43:56;;;;;;;6.03;5.50;;;;;;;27.39;42.27;101586.97;6178947;28;20573;-53
2021/07/11 09:47:18;;;;;;;12.13;5.20;;;;;;;27.03;42.72;101593.84;6171849;28;20242;-56
2021/07/11 09:50:40;;;;;;;7.38;5.57;;;;;;;27.58;42.67;101583.91;6163560;28;20226;-53
2021/07/11 09:54:09;;;;;;;6.50;5.35;;;;;;;27.71;42.13;101593.78;6171186;28;20227;-52
2021/07/11 09:57:34;;;;;;;4.93;4.53;;;;;;;27.46;42.26;101584.78;6171240;28;20241;-52
2021/07/11 10:00:55;;;;;;;6.20;5.70;;;;;;;28.04;42.27;101580.72;6170777;28;20233;-53
2021/07/11 10:04:16;;;;;;;6.38;5.93;;;;;;;28.28;40.96;101577.25;6173832;28;20226;-51
2021/07/11 10:07:38;;;;;;;6.15;5.55;;;;;;;28.46;41.46;101583.97;6177639;28;20741;-56
2021/07/11 10:11:00;;;;;;;7.30;5.43;;;;;;;27.97;40.98;101579.44;6168328;28;20242;-51
2021/07/11 10:14:21;;;;;;;6.18;5.68;;;;;;;28.13;40.16;101573.00;6171243;28;20313;-50
2021/07/11 10:17:45;;;;;;;6.75;5.30;;;;;;;28.50;39.61;101573.00;6165753;28;20238;-54
2021/07/11 10:21:07;;;;;;;6.47;6.07;;;;;;;28.97;39.82;101574.91;6162393;28;20257;-55
2021/07/11 10:24:29;;;;;;;6.03;5.63;;;;;;;28.18;39.35;101568.19;6174531;28;20229;-53
2021/07/11 10:28:06;;;;;;;6.68;6.18;;;;;;;28.44;39.38;101580.56;6175990;28;20245;-52
2021/07/11 10:31:29;;;;;;;5.50;5.10;;;;;;;28.52;38.79;101584.50;6174631;28;20605;-52
2021/07/11 10:34:50;;;;;;;48.53;10.27;;;;;;;28.94;38.14;101582.31;6175850;28;20237;-55
2021/07/11 10:38:11;;;;;;;7.38;6.68;;;;;;;29.58;37.68;101573.88;6184459;28;20238;-56
2021/07/11 10:41:33;;;;;;;6.25;5.75;;;;;;;28.93;39.09;101577.94;6179506;28;20240;-56
2021/07/11 10:45:07;;;;;;;5.95;5.35;;;;;;;28.86;38.43;101586.41;6177121;28;20257;-53
2021/07/11 10:48:30;;;;;;;6.53;5.95;;;;;;;29.47;38.36;101581.91;6178400;28;20552;-57
2021/07/11 10:51:53;;;;;;;5.88;5.47;;;;;;;29.58;36.80;101582.78;6187063;28;20234;-56
2021/07/11 10:55:15;;;;;;;5.65;5.30;;;;;;;27.88;39.81;101601.53;6172902;28;20225;-56
2021/07/11 10:58:46;;;;;;;6.32;5.93;;;;;;;27.94;39.28;101582.34;6147345;28;20234;-54
2021/07/11 11:02:19;;;;;;;5.95;5.45;;;;;;;28.73;38.62;101582.06;6146310;28;20324;-54
2021/07/11 11:05:43;;;;;;;7.72;6.93;;;;;;;29.91;37.37;101581.16;6153838;28;20225;-55
2021/07/11 11:09:04;;;;;;;5.90;5.40;;;;;;;30.43;35.85;101570.75;6172577;28;20504;-53
2021/07/11 11:12:27;;;;;;;6.47;6.03;;;;;;;29.92;37.01;101582.88;6182403;28;20237;-51
2021/07/11 11:15:50;;;;;;;7.03;6.38;;;;;;;29.63;37.71;101585.13;6180241;28;20229;-56
2021/07/11 11:19:16;;;;;;;6.75;6.15;;;;;;;28.95;39.00;101582.19;6180335;28;21022;-53
2021/07/11 11:22:37;;;;;;;6.70;6.03;;;;;;;28.97;39.33;101579.41;6182750;28;20230;-56
2021/07/11 11:25:58;;;;;;;6.57;6.00;;;;;;;27.30;41.48;101585.81;6175761;28;20261;-55
2021/07/11 11:29:26;;;;;;;7.15;6.55;;;;;;;28.50;39.69;101581.06;6176534;28;20245;-55
2021/07/11 11:32:49;;;;;;;6.93;6.22;;;;;;;29.45;38.62;101580.22;6177706;28;20230;-53
2021/07/11 11:36:12;;;;;;;6.68;6.18;;;;;;;29.11;37.84;101581.91;6180949;28;20230;-55
2021/07/11 11:39:36;;;;;;;6.18;5.70;;;;;;;28.61;39.07;101573.13;6178444;28;20255;-50
2021/07/11 11:42:59;;;;;;;7.25;6.60;;;;;;;28.88;38.38;101580.09;6183006;28;20481;-55
2021/07/11 11:46:28;;;;;;;6.50;6.03;;;;;;;28.81;39.16;101577.88;6179567;28;20316;-54
2021/07/11 11:49:49;;;;;;;6.20;5.72;;;;;;;28.80;38.91;101581.50;6177290;28;20687;-53
2021/07/11 11:53:13;;;;;;;6.00;5.50;;;;;;;28.84;38.75;101583.00;6171134;28;20449;-56
2021/07/11 11:56:36;;;;;;;6.85;5.38;;;;;;;28.83;38.13;101578.63;6174595;28;20234;-55
2021/07/11 11:59:57;;;;;;;6.95;6.35;;;;;;;29.50;38.25;101565.59;6177641;28;20688;-54
2021/07/11 12:03:23;;;;;;;6.38;5.88;;;;;;;30.08;37.38;101569.06;6175262;28;20765;-55
2021/07/11 12:06:48;;;;;;;5.93;5.53;;;;;;;29.99;35.84;101568.00;6183573;28;20230;-54
2021/07/11 12:10:14;;;;;;;6.03;5.63;;;;;;;30.36;36.12;101575.78;6175083;28;20234;-52
2021/07/11 12:13:36;;;;;;;5.38;4.80;;;;;;;28.98;36.47;101573.06;6174257;28;20675;-53
2021/07/11 12:16:59;;;;;;;5.95;5.45;;;;;;;30.01;36.96;101570.53;6176433;28;20226;-50
2021/07/11 12:20:21;;;;;;;6.50;5.88;;;;;;;30.13;36.49;101566.03;6174691;28;20843;-54
2021/07/11 12:23:42;;;;;;;8.30;6.93;;;;;;;30.46;36.69;101561.59;6170648;28;20222;-51
2021/07/11 12:27:05;;;;;;;6.75;6.03;;;;;;;30.72;35.96;101557.63;6170948;28;20242;-50
2021/07/11 12:30:36;;;;;;;5.53;5.13;;;;;;;30.88;35.70;101556.34;6177231;28;20236;-52
2021/07/11 12:34:00;;;;;;;5.88;5.47;;;;;;;31.18;34.81;101556.47;6167412;28;20237;-49
2021/07/11 12:37:21;;;;;;;6.13;5.63;;;;;;;31.43;34.26;101549.00;6173436;28;20229;-52
2021/07/11 12:40:43;;;;;;;5.28;4.85;;;;;;;30.58;36.05;101547.16;6176899;28;20320;-52
2021/07/11 12:44:06;;;;;;;5.93;5.43;;;;;;;30.14;35.35;101548.94;6181363;28;20250;-50
2021/07/11 12:47:27;;;;;;;6.13;5.72;;;;;;;29.82;36.92;101553.22;6174191;28;20238;-53
2021/07/11 12:50:48;;;;;;;5.82;5.43;;;;;;;29.63;36.72;101559.13;6170453;28;20486;-47
2021/07/11 12:54:12;;;;;;;7.30;6.70;;;;;;;28.56;39.91;101575.31;6178907;28;20544;-54
2021/07/11 12:57:33;;;;;;;6.70;6.20;;;;;;;27.72;44.12;101576.75;6174523;28;20241;-52
2021/07/11 13:01:03;;;;;;;7.68;7.07;;;;;;;27.76;46.97;101572.91;6175225;28;20237;-51
2021/07/11 13:04:24;;;;;;;7.25;6.75;;;;;;;28.18;45.84;101573.53;6175164;28;20242;-50
2021/07/11 13:07:45;;;;;;;8.07;7.45;;;;;;;28.41;46.16;101572.72;6173630;28;20859;-50
2021/07/11 13:11:06;;;;;;;11.15;10.15;;;;;;;28.79;46.78;101566.41;6174660;28;20320;-51
2021/07/11 13:14:27;;;;;;;13.27;12.05;;;;;;;29.19;45.99;101570.63;6168752;28;20226;-53
2021/07/11 13:17:49;;;;;;;8.48;7.40;;;;;;;29.39;44.82;101558.34;6177301;28;21034;-50
2021/07/11 13:21:10;;;;;;;11.80;7.85;;;;;;;30.18;44.96;101551.22;6184600;28;20238;-53
2021/07/11 13:24:31;;;;;;;7.32;6.70;;;;;;;30.40;43.74;101560.28;6179887;28;20254;-53
2021/07/11 13:27:52;;;;;;;7.97;7.22;;;;;;;31.16;42.97;101555.75;6184368;28;20245;-52
2021/07/11 13:31:13;;;;;;;7.60;6.95;;;;;;;34.10;36.05;101549.78;6185326;28;20672;-49
2021/07/11 13:34:35;;;;;;;7.35;6.75;;;;;;;34.10;35.51;101544.38;6182354;28;20621;-54
2021/07/11 13:37:58;;;;;;;6.60;6.10;;;;;;;34.47;35.59;101547.03;6180406;28;20328;-53
2021/07/11 13:41:19;;;;;;;7.50;5.80;;;;;;;35.01;34.97;101555.16;6174751;28;20592;-51
2021/07/11 13:44:43;;;;;;;6.25;5.65;;;;;;;33.27;37.11;101564.00;6173373;28;20230;-54
2021/07/11 13:48:04;;;;;;;6.35;5.80;;;;;;;31.68;39.80;101557.63;6179911;28;20234;-50
2021/07/11 13:51:27;;;;;;;5.35;4.95;;;;;;;30.25;41.77;101556.13;6181096;28;20234;-51
2021/07/11 13:54:47;;;;;;;5.38;4.97;;;;;;;30.17;42.10;101554.91;6186439;28;20234;-55
2021/07/11 13:58:09;;;;;;;5.43;5.03;;;;;;;30.50;41.33;101555.00;6180227;28;20229;-50
2021/07/11 14:01:29;;;;;;;5.43;5.03;;;;;;;30.39;41.77;101540.59;6182467;28;20222;-48
2021/07/11 14:04:50;;;;;;;6.13;5.65;;;;;;;30.09;41.81;101545.75;6181968;28;20245;-52
2021/07/11 14:08:13;;;;;;;5.85;5.45;;;;;;;29.96;41.26;101549.44;6178281;28;20286;-52
2021/07/11 14:11:34;;;;;;;5.13;4.72;;;;;;;30.27;41.27;101543.44;6173923;28;20679;-50
2021/07/11 14:14:55;;;;;;;6.00;5.55;;;;;;;30.40;40.19;101544.16;6185033;28;20237;-51
2021/07/11 14:18:16;;;;;;;5.18;4.88;;;;;;;30.95;39.05;101539.59;6181377;28;20584;-52
2021/07/11 14:21:38;;;;;;;5.35;5.00;;;;;;;30.65;39.72;101537.63;6188833;28;20229;-50
2021/07/11 14:25:01;;;;;;;6.60;6.00;;;;;;;30.27;40.83;101540.75;6182388;28;20233;-51
2021/07/11 14:28:21;;;;;;;5.57;5.07;;;;;;;29.74;41.77;101536.88;6179581;28;20246;-55
2021/07/11 14:31:43;;;;;;;5.93;4.88;;;;;;;29.08;43.47;101539.25;6183647;28;20238;-53
2021/07/11 14:35:05;;;;;;;5.30;4.80;;;;;;;28.81;43.94;101543.03;6182762;28;20242;-56
2021/07/11 14:38:27;;;;;;;6.05;4.90;;;;;;;28.68;44.38;101539.56;6182660;28;20245;-53
2021/07/11 14:41:50;;;;;;;5.95;5.18;;;;;;;28.12;45.77;101540.03;6170937;28;20234;-52
2021/07/11 14:45:12;;;;;;;5.78;5.28;;;;;;;27.97;46.02;101536.63;6182947;28;20225;-54
2021/07/11 14:48:33;;;;;;;6.18;5.78;;;;;;;27.87;46.88;101527.50;6181603;28;20573;-51
2021/07/11 14:51:54;;;;;;;5.40;4.90;;;;;;;27.80;46.94;101531.56;6183072;28;20233;-51
2021/07/11 14:55:15;;;;;;;7.90;5.40;;;;;;;27.54;47.83;101534.28;6184667;28;20249;-55
2021/07/11 14:58:38;;;;;;;6.05;5.15;;;;;;;27.49;47.43;101531.03;6183140;28;20234;-55
2021/07/11 15:01:58;;;;;;;6.45;5.95;;;;;;;27.50;47.68;101525.59;6182277;28;20238;-50
2021/07/11 15:05:20;;;;;;;5.65;5.03;;;;;;;27.56;47.64;101527.00;6178800;28;20229;-53
2021/07/11 15:08:40;;;;;;;6.07;5.47;;;;;;;27.67;48.07;101529.78;6172934;28;20241;-53
2021/07/11 15:12:01;;;;;;;6.07;5.45;;;;;;;27.47;47.43;101533.84;6177695;28;20237;-51
2021/07/11 15:15:24;;;;;;;6.95;5.25;;;;;;;27.44;47.43;101528.69;6184362;28;20245;-53
2021/07/11 15:18:44;;;;;;;5.80;5.30;;;;;;;27.19;48.27;101524.16;6182103;28;20221;-54
2021/07/11 15:22:06;;;;;;;5.70;5.20;;;;;;;27.01;48.21;101520.06;6183620;28;20242;-50
2021/07/11 15:25:28;;;;;;;4.90;4.50;;;;;;;27.08;48.54;101518.66;6179466;28;20238;-55
2021/07/11 15:28:49;;;;;;;5.22;4.82;;;;;;;26.70;48.80;101512.28;6175834;28;20241;-51
2021/07/11 15:32:13;;;;;;;6.53;5.95;;;;;;;26.41;49.19;101516.81;6185440;28;20238;-53
2021/07/11 15:35:35;;;;;;;5.43;4.93;;;;;;;26.87;47.83;101527.19;6176398;28;20512;-55
2021/07/11 15:38:56;;;;;;;6.53;5.93;;;;;;;26.85;48.68;101526.44;6168012;28;20233;-52
2021/07/11 15:42:17;;;;;;;6.22;5.72;;;;;;;26.51;48.15;101538.44;6187414;28;20222;-52